Time;durP1;ratioP1;P1;durP2;ratioP2;P2;SDS_P1;SDS_P2;PMS_P1;PMS_P2;Temp;Humidity;BMP_temperature;BMP_pressure;BME280_temperature;BME280_humidity;BME280_pressure;Samples;Min_cycle;Max_cycle;Signal;HPM_P1;HPM_P2
2022/03/04 00:01:30;;;;;;;44.40;18.17;;;-1.80;99.90;;;;;;5039512;28;20051;-96
2022/03/04 00:03:56;;;;;;;46.20;20.70;;;-1.70;99.90;;;;;;5042185;28;20041;-92
2022/03/04 00:06:21;;;;;;;50.73;20.37;;;-1.90;99.90;;;;;;5023161;28;20045;-93
2022/03/04 00:08:50;;;;;;;54.80;22.80;;;-1.20;99.90;;;;;;5039707;28;20053;-93
2022/03/04 00:11:17;;;;;;;52.43;20.23;;;-2.00;99.90;;;;;;5039089;28;20051;-96
2022/03/04 00:13:43;;;;;;;51.20;20.83;;;-1.90;99.90;;;;;;5039382;28;20048;-96
2022/03/04 00:16:09;;;;;;;43.17;18.37;;;-2.00;99.90;;;;;;5038965;28;20045;-92
2022/03/04 00:18:34;;;;;;;47.87;18.63;;;-1.70;99.90;;;;;;5041263;28;20051;-93
2022/03/04 00:21:02;;;;;;;45.40;19.47;;;-2.10;99.90;;;;;;5023061;28;20044;-96
2022/03/04 00:23:27;;;;;;;46.90;17.90;;;-1.70;99.90;;;;;;5039610;28;20483;-93
2022/03/04 00:25:53;;;;;;;46.70;19.83;;;-1.40;99.90;;;;;;5039175;28;20048;-93
2022/03/04 00:28:19;;;;;;;47.80;18.90;;;-1.80;99.90;;;;;;5023228;28;20048;-96
2022/03/04 00:30:47;;;;;;;49.30;19.60;;;-2.20;99.90;;;;;;5023006;28;20043;-96
2022/03/04 00:33:13;;;;;;;48.20;19.77;;;-2.20;99.90;;;;;;5041087;28;20186;-93
2022/03/04 00:35:38;;;;;;;44.30;17.97;;;-2.20;99.90;;;;;;5055562;28;20044;-96
2022/03/04 00:38:04;;;;;;;43.47;18.00;;;-2.30;99.90;;;;;;5022852;28;20052;-92
2022/03/04 00:40:30;;;;;;;52.73;19.87;;;-2.40;99.90;;;;;;5038941;28;20043;-96
2022/03/04 00:42:56;;;;;;;50.67;20.03;;;-2.40;99.90;;;;;;5055431;28;20041;-92
2022/03/04 00:45:22;;;;;;;45.70;19.53;;;-2.10;99.90;;;;;;5039389;28;20493;-96
2022/03/04 00:47:48;;;;;;;51.93;19.87;;;-2.40;99.90;;;;;;5026509;28;20049;-95
2022/03/04 00:50:15;;;;;;;54.50;22.03;;;-2.50;99.90;;;;;;5023041;28;20104;-96
2022/03/04 00:52:43;;;;;;;55.80;20.50;;;-1.70;99.90;;;;;;5039351;28;20044;-92
2022/03/04 00:55:10;;;;;;;52.37;19.90;;;-2.50;99.90;;;;;;5007760;28;20063;-96
2022/03/04 00:57:35;;;;;;;50.03;20.00;;;-2.50;99.90;;;;;;5022980;28;20052;-95
2022/03/04 01:00:03;;;;;;;59.77;21.43;;;-2.60;99.90;;;;;;5041582;28;20040;-92
2022/03/04 01:02:28;;;;;;;56.67;20.97;;;-2.50;99.90;;;;;;5039119;28;20139;-95
2022/03/04 01:04:54;;;;;;;55.10;21.00;;;-2.40;99.90;;;;;;5022418;28;20100;-95
2022/03/04 01:07:20;;;;;;;56.73;21.47;;;-2.60;99.90;;;;;;5039426;28;20048;-96
2022/03/04 01:09:46;;;;;;;56.97;21.93;;;-2.60;99.90;;;;;;5022933;28;20041;-89
2022/03/04 01:12:12;;;;;;;60.03;22.27;;;-2.60;99.90;;;;;;5006625;28;20547;-92
2022/03/04 01:14:38;;;;;;;58.13;21.27;;;-2.60;99.90;;;;;;5040375;28;20048;-92
2022/03/04 01:17:04;;;;;;;51.50;20.97;;;-2.70;99.90;;;;;;5038707;28;20079;-93
2022/03/04 01:19:30;;;;;;;51.70;20.90;;;-2.50;99.90;;;;;;5041915;28;20522;-92
2022/03/04 01:21:56;;;;;;;59.73;22.50;;;-1.80;99.90;;;;;;5059388;28;20044;-96
2022/03/04 01:24:21;;;;;;;55.57;22.97;;;-2.70;99.90;;;;;;5044308;28;20097;-93
2022/03/04 01:26:47;;;;;;;56.90;21.80;;;-1.90;99.90;;;;;;5042766;28;20045;-96
2022/03/04 01:29:13;;;;;;;60.90;23.50;;;-2.60;99.90;;;;;;5042625;28;20044;-91
2022/03/04 01:31:39;;;;;;;62.60;23.57;;;-2.00;99.90;;;;;;5025582;28;20060;-92
2022/03/04 01:34:05;;;;;;;73.53;24.33;;;-2.60;99.90;;;;;;5059272;28;20438;-92
2022/03/04 01:36:33;;;;;;;61.10;23.87;;;-2.60;99.90;;;;;;5044497;28;20036;-93
2022/03/04 01:39:00;;;;;;;63.83;24.47;;;-2.00;99.90;;;;;;5042454;28;20044;-96
2022/03/04 01:41:26;;;;;;;69.53;25.20;;;-1.70;99.90;;;;;;5042872;28;20044;-93
2022/03/04 01:43:51;;;;;;;69.43;25.53;;;-1.50;99.90;;;;;;5025813;28;20118;-91
2022/03/04 01:46:24;;;;;;;71.93;26.30;;;-1.90;99.90;;;;;;5042573;28;20298;-96
2022/03/04 01:48:49;;;;;;;72.20;26.63;;;-2.50;99.90;;;;;;5043607;28;20036;-92
2022/03/04 01:51:15;;;;;;;66.70;26.10;;;-2.40;99.90;;;;;;5026737;28;20380;-92
2022/03/04 01:53:41;;;;;;;70.17;26.03;;;-2.30;99.90;;;;;;5026445;28;20040;-92
2022/03/04 01:56:07;;;;;;;73.47;26.33;;;-2.20;99.90;;;;;;5026130;28;20052;-91
2022/03/04 01:58:34;;;;;;;75.23;27.93;;;-1.90;99.90;;;;;;5042058;28;20070;-91
2022/03/04 02:01:00;;;;;;;68.07;25.03;;;-2.10;99.90;;;;;;5041931;28;20036;-96
2022/03/04 02:03:26;;;;;;;74.20;24.80;;;-2.40;99.90;;;;;;5045012;28;20040;-92
2022/03/04 02:05:52;;;;;;;65.80;23.60;;;-2.30;99.90;;;;;;5041611;28;20045;-92
2022/03/04 02:08:18;;;;;;;63.97;24.30;;;-2.20;99.90;;;;;;5041713;28;20049;-92
2022/03/04 02:10:46;;;;;;;75.70;25.17;;;-2.50;99.90;;;;;;5026406;28;20117;-96
2022/03/04 02:13:13;;;;;;;67.30;24.17;;;-2.50;99.90;;;;;;5025039;28;20131;-91
2022/03/04 02:15:46;;;;;;;64.90;24.50;;;-2.50;99.90;;;;;;5044382;28;20461;-95
2022/03/04 02:18:17;;;;;;;62.35;24.77;;;-2.60;99.90;;;;;;5043314;28;20040;-96
2022/03/04 02:20:49;;;;;;;74.73;25.90;;;-2.60;99.90;;;;;;5058159;28;20043;-96
2022/03/04 02:23:16;;;;;;;77.53;25.37;;;-2.60;99.90;;;;;;5058385;28;20037;-92
2022/03/04 02:25:50;;;;;;;64.93;23.83;;;-2.60;99.90;;;;;;5041942;28;20442;-96
2022/03/04 02:28:17;;;;;;;78.17;25.17;;;-2.50;99.90;;;;;;5042503;28;20045;-92
2022/03/04 02:30:43;;;;;;;65.63;24.50;;;-2.50;99.90;;;;;;5061197;28;20044;-96
2022/03/04 02:33:09;;;;;;;75.27;25.13;;;-2.20;99.90;;;;;;5041268;28;20132;-96
2022/03/04 02:35:37;;;;;;;74.13;25.97;;;-2.10;99.90;;;;;;5041417;28;20076;-96
2022/03/04 02:38:03;;;;;;;78.93;24.97;;;-2.50;99.90;;;;;;5042312;28;20041;-95
2022/03/04 02:40:29;;;;;;;75.60;26.17;;;-2.50;99.90;;;;;;5042253;28;20041;-96
2022/03/04 02:42:56;;;;;;;82.83;26.03;;;-2.40;99.90;;;;;;5048929;28;20139;-94
2022/03/04 02:45:21;;;;;;;73.30;24.90;;;-1.20;99.90;;;;;;5059505;28;20048;-96
2022/03/04 02:47:47;;;;;;;70.27;26.00;;;-2.40;99.90;;;;;;5041916;28;20044;-93
2022/03/04 02:50:13;;;;;;;69.13;23.90;;;-2.20;99.90;;;;;;5041196;28;20384;-96
2022/03/04 02:52:39;;;;;;;76.23;25.47;;;-2.50;99.90;;;;;;5041126;28;20045;-92
2022/03/04 02:55:10;;;;;;;70.50;24.23;;;-2.50;99.90;;;;;;5024757;28;20056;-92
2022/03/04 02:57:36;;;;;;;75.67;24.70;;;-2.50;99.90;;;;;;5042938;28;20045;-96
2022/03/04 03:00:04;;;;;;;68.37;21.93;;;-2.70;99.90;;;;;;5024592;28;20067;-93
2022/03/04 03:02:30;;;;;;;64.33;22.43;;;-2.50;99.90;;;;;;5040733;28;20036;-96
2022/03/04 03:04:56;;;;;;;68.10;24.50;;;-2.80;99.90;;;;;;5024687;28;20037;-94
2022/03/04 03:07:22;;;;;;;72.30;24.43;;;-2.30;99.90;;;;;;5040587;28;20540;-92
2022/03/04 03:09:47;;;;;;;61.43;23.03;;;-2.20;99.90;;;;;;5040740;28;20048;-92
2022/03/04 03:12:13;;;;;;;68.90;23.60;;;-2.70;99.90;;;;;;5030602;28;20449;-93
2022/03/04 03:14:39;;;;;;;67.80;23.97;;;-2.70;99.90;;;;;;5007783;28;20045;-92
2022/03/04 03:17:05;;;;;;;64.23;23.73;;;-2.80;99.90;;;;;;5024334;28;20110;-92
2022/03/04 03:19:30;;;;;;;73.90;24.27;;;-2.90;99.90;;;;;;5040447;28;20040;-96
2022/03/04 03:21:56;;;;;;;76.63;23.83;;;-2.90;99.90;;;;;;5057179;28;20040;-92
2022/03/04 03:24:22;;;;;;;65.30;22.53;;;-2.90;99.90;;;;;;5040183;28;20070;-94
2022/03/04 03:26:48;;;;;;;65.70;22.93;;;-2.90;99.90;;;;;;5029614;28;20135;-93
2022/03/04 03:29:14;;;;;;;71.00;23.67;;;-3.00;99.90;;;;;;5024037;28;20037;-92
2022/03/04 03:31:42;;;;;;;76.60;24.50;;;-2.90;99.90;;;;;;5008400;28;20110;-93
2022/03/04 03:34:08;;;;;;;62.97;23.47;;;-2.90;99.90;;;;;;5007534;28;20056;-92
2022/03/04 03:36:34;;;;;;;66.97;23.40;;;-3.00;99.90;;;;;;5040188;28;20055;-96
2022/03/04 03:39:00;;;;;;;65.37;23.53;;;-2.90;99.90;;;;;;5029415;28;20032;-94
2022/03/04 03:41:26;;;;;;;70.30;24.53;;;-2.30;99.90;;;;;;5060016;28;20056;-92
2022/03/04 03:43:53;;;;;;;60.63;23.30;;;-2.80;99.90;;;;;;5039865;28;20080;-91
2022/03/04 03:46:19;;;;;;;68.27;23.47;;;-2.80;99.90;;;;;;5007759;28;20127;-93
2022/03/04 03:48:45;;;;;;;65.33;23.97;;;-2.80;99.90;;;;;;5023713;28;20127;-95
2022/03/04 03:51:11;;;;;;;59.97;23.23;;;-2.70;99.90;;;;;;5023377;28;20048;-93
2022/03/04 03:53:37;;;;;;;61.37;23.37;;;-2.60;99.90;;;;;;5025118;28;20107;-96
2022/03/04 03:56:03;;;;;;;62.17;21.87;;;-2.50;99.90;;;;;;5023811;28;20364;-96
2022/03/04 03:58:29;;;;;;;57.73;21.83;;;-2.70;99.90;;;;;;5023314;28;20044;-92
2022/03/04 04:00:55;;;;;;;60.87;22.60;;;-2.70;99.90;;;;;;5023325;28;20041;-92
2022/03/04 04:03:21;;;;;;;65.03;23.20;;;-2.70;99.90;;;;;;5039853;28;20049;-92
2022/03/04 04:05:47;;;;;;;59.20;22.47;;;-2.80;99.90;;;;;;5042720;28;20076;-92
2022/03/04 04:08:13;;;;;;;61.20;21.27;;;-2.80;99.90;;;;;;5023193;28;20094;-94
2022/03/04 04:10:39;;;;;;;65.43;23.67;;;-2.90;99.90;;;;;;5039376;28;20135;-96
2022/03/04 04:13:04;;;;;;;62.07;21.87;;;-3.00;99.90;;;;;;5039398;28;20499;-92
2022/03/04 04:15:30;;;;;;;58.70;22.17;;;-3.10;99.90;;;;;;5039604;28;20501;-92
2022/03/04 04:17:56;;;;;;;59.70;23.70;;;-3.00;99.90;;;;;;5006512;28;20403;-92
2022/03/04 04:20:22;;;;;;;60.17;22.23;;;-3.00;99.90;;;;;;5024233;28;20157;-92
2022/03/04 04:22:48;;;;;;;71.30;24.00;;;-3.10;99.90;;;;;;5039492;28;20067;-93
2022/03/04 04:25:13;;;;;;;64.40;23.23;;;-3.00;99.90;;;;;;5039283;28;20045;-93
2022/03/04 04:27:39;;;;;;;67.13;23.10;;;-3.10;99.90;;;;;;5039847;28;20032;-92
2022/03/04 04:30:06;;;;;;;60.57;24.13;;;-3.00;99.90;;;;;;5022828;28;20107;-96
2022/03/04 04:32:32;;;;;;;66.63;23.43;;;-3.30;99.90;;;;;;5023932;28;20135;-96
2022/03/04 04:34:58;;;;;;;61.60;23.70;;;-3.10;99.90;;;;;;5039480;28;20091;-92
2022/03/04 04:37:23;;;;;;;67.63;23.80;;;-3.10;99.90;;;;;;5023136;28;20044;-95
2022/03/04 04:39:49;;;;;;;69.77;23.53;;;-3.10;99.90;;;;;;5022988;28;20066;-94
2022/03/04 04:42:15;;;;;;;69.33;23.90;;;-3.10;99.90;;;;;;5023419;28;20076;-93
2022/03/04 04:44:41;;;;;;;64.73;24.20;;;-3.10;99.90;;;;;;5023420;28;20048;-95
2022/03/04 04:47:07;;;;;;;64.53;25.13;;;-3.10;99.90;;;;;;5041473;28;20049;-96
2022/03/04 04:49:37;;;;;;;68.00;23.90;;;-3.00;99.90;;;;;;5039972;28;20070;-91
2022/03/04 04:52:08;;;;;;;65.57;24.10;;;-3.10;99.90;;;;;;5023303;28;20101;-96
2022/03/04 04:54:34;;;;;;;74.80;25.57;;;-3.00;99.90;;;;;;5058406;28;20083;-92
2022/03/04 04:57:00;;;;;;;71.10;24.17;;;-3.00;99.90;;;;;;5026915;28;20045;-96
2022/03/04 04:59:26;;;;;;;69.67;23.47;;;-3.00;99.90;;;;;;5066814;28;20051;-91
2022/03/04 05:01:52;;;;;;;73.17;25.47;;;-2.60;99.90;;;;;;5042912;28;20045;-92
2022/03/04 05:04:18;;;;;;;68.83;24.53;;;-3.10;99.90;;;;;;5043190;28;20135;-93
2022/03/04 05:06:44;;;;;;;66.43;24.63;;;-2.80;99.90;;;;;;5027101;28;20101;-93
2022/03/04 05:09:10;;;;;;;76.03;25.33;;;-3.10;99.90;;;;;;5042824;28;20080;-96
2022/03/04 05:11:36;;;;;;;76.00;26.43;;;-3.10;99.90;;;;;;5010583;28;20101;-95
2022/03/04 05:14:01;;;;;;;79.73;26.87;;;-3.00;99.90;;;;;;5045349;28;20045;-94
2022/03/04 05:16:27;;;;;;;77.70;25.93;;;-2.90;99.90;;;;;;5045631;28;20040;-93
2022/03/04 05:18:53;;;;;;;86.17;28.47;;;-2.40;99.90;;;;;;5042824;28;20041;-93
2022/03/04 05:21:19;;;;;;;87.17;27.97;;;-2.80;99.90;;;;;;5042627;28;20037;-94
2022/03/04 05:24:00;;;;;;;93.57;30.33;;;-2.80;99.90;;;;;;5042570;28;20402;-96
2022/03/04 05:26:27;;;;;;;94.53;28.23;;;-2.70;99.90;;;;;;5014380;28;20491;-96
2022/03/04 05:28:53;;;;;;;100.70;29.87;;;-2.70;99.90;;;;;;5046057;28;20045;-96
2022/03/04 05:31:19;;;;;;;90.40;28.70;;;-2.60;99.90;;;;;;5042577;28;20095;-96
2022/03/04 05:33:45;;;;;;;84.90;29.93;;;-2.50;99.90;;;;;;5042419;28;20090;-92
2022/03/04 05:36:11;;;;;;;85.03;28.53;;;-2.40;99.90;;;;;;5042568;28;20132;-95
2022/03/04 05:38:37;;;;;;;94.53;28.60;;;-2.40;99.90;;;;;;5042469;28;20047;-92
2022/03/04 05:41:03;;;;;;;102.90;30.13;;;-1.50;99.90;;;;;;5047139;28;20104;-93
2022/03/04 05:43:29;;;;;;;92.43;29.63;;;-2.30;99.90;;;;;;5026455;28;20523;-95
2022/03/04 05:45:54;;;;;;;97.53;29.20;;;-2.20;99.90;;;;;;5025444;28;20550;-92
2022/03/04 05:48:21;;;;;;;88.40;29.03;;;-2.20;99.90;;;;;;5009707;28;20135;-95
2022/03/04 05:50:47;;;;;;;101.60;29.60;;;-2.10;99.90;;;;;;5025668;28;20037;-95
2022/03/04 05:53:14;;;;;;;85.17;28.13;;;-2.00;99.90;;;;;;5042335;28;20070;-95
2022/03/04 05:55:40;;;;;;;101.60;29.57;;;-1.60;99.90;;;;;;5045754;28;20044;-96
2022/03/04 05:58:05;;;;;;;92.83;27.97;;;-2.00;99.90;;;;;;5042052;28;20044;-95
2022/03/04 06:00:32;;;;;;;108.63;31.90;;;-1.90;99.90;;;;;;5058586;28;20399;-93
2022/03/04 06:02:57;;;;;;;103.07;29.70;;;-1.90;99.90;;;;;;5025379;28;20072;-92
2022/03/04 06:05:24;;;;;;;106.07;30.10;;;-1.90;99.90;;;;;;5041532;28;20462;-93
2022/03/04 06:07:50;;;;;;;116.00;32.23;;;-1.70;99.90;;;;;;5027816;28;20059;-95
2022/03/04 06:10:16;;;;;;;101.53;29.70;;;-1.90;99.90;;;;;;5025452;28;20399;-96
2022/03/04 06:12:42;;;;;;;94.67;30.13;;;-1.80;99.90;;;;;;5025525;28;20051;-96
2022/03/04 06:15:08;;;;;;;103.00;31.20;;;-1.80;99.90;;;;;;5042236;28;20052;-93
2022/03/04 06:17:34;;;;;;;98.13;31.20;;;-1.80;99.90;;;;;;5041740;28;20044;-95
2022/03/04 06:20:00;;;;;;;91.47;30.17;;;-1.80;99.90;;;;;;5041493;28;20510;-93
2022/03/04 06:22:26;;;;;;;99.33;29.77;;;-1.70;99.90;;;;;;5031732;28;20044;-94
2022/03/04 06:24:52;;;;;;;104.07;29.90;;;-1.80;99.90;;;;;;5025330;28;20471;-93
2022/03/04 06:27:18;;;;;;;97.47;30.93;;;-1.80;99.90;;;;;;5025221;28;20102;-96
2022/03/04 06:29:43;;;;;;;105.83;31.83;;;-1.20;99.90;;;;;;5024984;28;20091;-94
2022/03/04 06:32:09;;;;;;;96.70;29.27;;;-2.00;99.90;;;;;;5040828;28;20056;-96
2022/03/04 06:34:35;;;;;;;104.70;32.53;;;-1.80;99.90;;;;;;5041439;28;20041;-93
2022/03/04 06:37:01;;;;;;;101.40;31.50;;;-1.70;99.90;;;;;;5043518;28;20568;-93
2022/03/04 06:39:27;;;;;;;96.47;30.23;;;-1.80;99.90;;;;;;5041056;28;20410;-93
2022/03/04 06:41:53;;;;;;;101.53;32.77;;;-1.60;99.90;;;;;;5024815;28;20048;-93
2022/03/04 06:44:19;;;;;;;105.83;30.37;;;-1.60;99.90;;;;;;5025052;28;20107;-93
2022/03/04 06:46:44;;;;;;;109.40;30.63;;;-1.60;99.90;;;;;;5057497;28;20079;-96
2022/03/04 06:49:11;;;;;;;98.77;29.27;;;-1.50;99.90;;;;;;5041226;28;20040;-92
2022/03/04 06:51:40;;;;;;;91.13;30.43;;;-1.50;99.90;;;;;;5045426;28;20052;-96
2022/03/04 06:54:06;;;;;;;97.17;30.37;;;-1.50;99.90;;;;;;5024253;28;20040;-95
2022/03/04 06:56:32;;;;;;;100.57;29.63;;;-1.40;99.90;;;;;;5040919;28;20055;-96
2022/03/04 06:58:58;;;;;;;93.53;29.37;;;-1.50;99.90;;;;;;5040786;28;20434;-93
2022/03/04 07:01:24;;;;;;;97.57;29.77;;;-1.30;99.90;;;;;;5040576;28;20134;-96
2022/03/04 07:03:50;;;;;;;92.13;29.87;;;-1.40;99.90;;;;;;5041036;28;20129;-93
2022/03/04 07:06:16;;;;;;;94.60;30.17;;;-1.30;99.90;;;;;;5027371;28;20044;-95
2022/03/04 07:08:42;;;;;;;91.97;29.90;;;-1.30;99.90;;;;;;5043174;28;20049;-96
2022/03/04 07:11:09;;;;;;;102.20;31.40;;;-1.30;99.90;;;;;;5040233;28;20045;-96
2022/03/04 07:13:34;;;;;;;95.47;32.13;;;-1.20;99.90;;;;;;5040186;28;20048;-96
2022/03/04 07:16:01;;;;;;;108.27;31.43;;;-1.20;99.90;;;;;;5023143;28;20505;-92
2022/03/04 07:18:29;;;;;;;109.53;34.53;;;-1.10;99.90;;;;;;5040120;28;20076;-93
2022/03/04 07:20:59;;;;;;;118.33;32.70;;;-1.00;99.90;;;;;;5042698;28;20062;-96
2022/03/04 07:23:25;;;;;;;98.70;33.00;;;-1.00;99.90;;;;;;5040408;28;20059;-95
2022/03/04 07:25:51;;;;;;;99.13;32.80;;;-0.70;99.90;;;;;;5007552;28;20414;-96
2022/03/04 07:28:17;;;;;;;116.23;32.83;;;-0.90;99.90;;;;;;5040277;28;20080;-92
2022/03/04 07:30:43;;;;;;;104.07;33.23;;;-0.80;99.90;;;;;;5040052;28;20052;-93
2022/03/04 07:33:08;;;;;;;107.53;31.97;;;-0.80;99.90;;;;;;5023349;28;20147;-93
2022/03/04 07:35:36;;;;;;;101.13;31.67;;;-0.70;99.90;;;;;;5040126;28;20040;-92
2022/03/04 07:38:02;;;;;;;113.33;31.53;;;-0.70;99.90;;;;;;5041286;28;20103;-92
2022/03/04 07:40:28;;;;;;;101.83;32.37;;;-0.60;99.90;;;;;;5056794;28;20473;-92
2022/03/04 07:42:54;;;;;;;107.80;31.73;;;-0.60;99.90;;;;;;5056495;28;20040;-92
2022/03/04 07:45:20;;;;;;;101.67;32.03;;;-0.50;99.90;;;;;;5039941;28;20047;-92
2022/03/04 07:47:46;;;;;;;85.90;30.93;;;-0.40;99.90;;;;;;5039989;28;20041;-96
2022/03/04 07:50:14;;;;;;;93.97;31.30;;;-0.50;99.90;;;;;;5042438;28;20479;-93
2022/03/04 07:52:41;;;;;;;92.50;31.37;;;-0.20;99.90;;;;;;5023771;28;20116;-95
2022/03/04 07:55:09;;;;;;;91.90;32.57;;;-0.30;99.90;;;;;;5023206;28;20037;-95
2022/03/04 07:57:35;;;;;;;87.73;31.27;;;-0.30;99.90;;;;;;5056451;28;20589;-95
2022/03/04 08:00:04;;;;;;;91.03;29.87;;;-0.30;99.90;;;;;;5039700;28;20135;-91
2022/03/04 08:02:30;;;;;;;85.73;30.77;;;-0.20;99.90;;;;;;5042564;28;20048;-95
2022/03/04 08:04:55;;;;;;;89.33;30.53;;;-0.30;99.90;;;;;;5023428;28;20052;-91
2022/03/04 08:07:21;;;;;;;91.60;32.57;;;-0.20;99.90;;;;;;5022869;28;20051;-91
2022/03/04 08:09:47;;;;;;;109.87;34.70;;;-0.20;99.90;;;;;;5056782;28;20221;-91
2022/03/04 08:12:13;;;;;;;101.67;34.17;;;-0.30;99.90;;;;;;5039607;28;20061;-95
2022/03/04 08:14:39;;;;;;;91.37;30.60;;;-0.20;99.90;;;;;;5039664;28;20047;-94
2022/03/04 08:17:05;;;;;;;74.13;28.20;;;-0.10;99.90;;;;;;5058537;28;20135;-91
2022/03/04 08:19:31;;;;;;;68.33;28.67;;;0.00;99.90;;;;;;5039096;28;20479;-91
2022/03/04 08:21:57;;;;;;;77.13;27.73;;;-0.10;99.90;;;;;;5022979;28;20059;-92
2022/03/04 08:24:23;;;;;;;67.90;29.93;;;0.00;99.90;;;;;;5023267;28;20550;-90
2022/03/04 08:26:49;;;;;;;74.03;27.93;;;0.00;99.90;;;;;;5039470;28;20127;-93
2022/03/04 08:29:14;;;;;;;70.43;28.57;;;0.10;99.90;;;;;;5026756;28;20047;-92
2022/03/04 08:31:40;;;;;;;72.93;28.73;;;0.10;99.90;;;;;;5043881;28;20056;-95
2022/03/04 08:34:06;;;;;;;65.30;27.50;;;0.40;99.90;;;;;;5027025;28;20055;-92
2022/03/04 08:36:32;;;;;;;61.37;25.63;;;0.40;99.90;;;;;;5026819;28;20051;-95
2022/03/04 08:39:03;;;;;;;57.50;25.43;;;0.40;99.90;;;;;;5026768;28;20063;-92
2022/03/04 08:41:30;;;;;;;64.03;28.03;;;0.40;99.90;;;;;;5043397;28;20044;-96
2022/03/04 08:43:56;;;;;;;64.43;27.40;;;0.50;99.90;;;;;;5011021;28;20044;-92
2022/03/04 08:46:21;;;;;;;57.90;27.37;;;0.70;99.90;;;;;;5060205;28;20052;-92
2022/03/04 08:48:47;;;;;;;51.90;24.63;;;0.60;99.90;;;;;;5026948;28;20090;-95
2022/03/04 08:51:13;;;;;;;52.47;25.83;;;0.70;99.90;;;;;;5043322;28;20563;-96
2022/03/04 08:53:39;;;;;;;55.87;27.03;;;0.70;99.90;;;;;;5043238;28;20131;-91
2022/03/04 08:56:06;;;;;;;63.80;26.90;;;0.70;99.90;;;;;;5026821;28;20059;-92
2022/03/04 08:58:32;;;;;;;60.93;28.67;;;0.80;99.90;;;;;;5026933;28;20094;-92
2022/03/04 09:00:58;;;;;;;42.87;23.27;;;0.90;99.90;;;;;;5043819;28;20040;-96
2022/03/04 09:03:24;;;;;;;49.78;23.98;;;1.00;99.90;;;;;;5043442;28;20046;-93
2022/03/04 09:05:50;;;;;;;46.10;23.33;;;1.10;99.90;;;;;;5043005;28;20048;-94
2022/03/04 09:08:16;;;;;;;43.13;21.63;;;1.10;99.90;;;;;;5010507;28;20056;-94
2022/03/04 09:10:42;;;;;;;50.00;23.90;;;1.10;99.90;;;;;;5042868;28;20048;-94
2022/03/04 09:13:08;;;;;;;47.43;24.03;;;1.20;99.90;;;;;;5042599;28;20040;-92
2022/03/04 09:15:34;;;;;;;40.40;22.40;;;1.30;99.90;;;;;;5026909;28;20056;-95
2022/03/04 09:18:00;;;;;;;43.40;23.13;;;1.50;99.90;;;;;;5043382;28;20246;-93
2022/03/04 09:20:26;;;;;;;41.13;23.57;;;1.60;99.90;;;;;;5042951;28;20041;-96
2022/03/04 09:22:53;;;;;;;38.90;22.55;;;1.70;99.90;;;;;;5059408;28;20127;-92
2022/03/04 09:25:21;;;;;;;36.95;20.83;;;1.90;99.90;;;;;;5042982;28;20551;-94
2022/03/04 09:27:49;;;;;;;35.67;20.80;;;2.00;99.90;;;;;;5042984;28;20494;-96
2022/03/04 09:30:16;;;;;;;35.73;19.60;;;2.10;99.90;;;;;;5043816;28;20044;-94
2022/03/04 09:32:42;;;;;;;35.83;20.02;;;1.90;99.90;;;;;;5039242;28;20053;-96
2022/03/04 09:35:10;;;;;;;33.33;20.70;;;2.00;99.90;;;;;;5039825;28;20056;-93
2022/03/04 09:37:37;;;;;;;34.90;20.15;;;1.90;99.90;;;;;;5039076;28;20043;-93
2022/03/04 09:40:05;;;;;;;31.77;20.38;;;2.00;99.90;;;;;;5038234;28;20056;-93
2022/03/04 09:42:32;;;;;;;36.28;20.02;;;1.90;99.90;;;;;;5034001;28;20052;-96
2022/03/04 09:44:58;;;;;;;38.95;21.75;;;2.00;99.90;;;;;;5039038;28;20049;-93
2022/03/04 09:47:24;;;;;;;32.92;20.17;;;1.90;99.90;;;;;;5022772;28;20049;-96
2022/03/04 09:49:52;;;;;;;33.67;21.03;;;1.90;99.90;;;;;;5039979;28;20037;-94
2022/03/04 09:52:18;;;;;;;32.37;20.90;;;1.70;99.90;;;;;;5040417;28;20045;-96
2022/03/04 09:54:48;;;;;;;37.33;20.83;;;1.90;99.90;;;;;;5041215;28;20045;-96
2022/03/04 09:57:15;;;;;;;33.33;20.50;;;1.80;99.90;;;;;;5024461;28;20040;-95
2022/03/04 09:59:43;;;;;;;33.67;19.85;;;1.90;99.90;;;;;;5022770;28;20049;-96
2022/03/04 10:02:14;;;;;;;32.53;18.30;;;1.80;97.10;;;;;;5055465;28;20107;-94
2022/03/04 10:04:40;;;;;;;29.20;18.50;;;1.90;93.00;;;;;;5040095;28;20079;-96
2022/03/04 10:07:11;;;;;;;28.70;17.85;;;1.80;88.10;;;;;;5044149;28;20041;-96
2022/03/04 10:09:46;;;;;;;33.28;18.10;;;1.80;27.70;;;;;;5043270;28;20049;-96
2022/03/04 10:12:14;;;;;;;25.60;17.40;;;1.90;39.70;;;;;;5042363;28;20041;-96
2022/03/04 10:15:04;;;;;;;26.95;17.33;;;2.00;14.10;;;;;;5041303;28;20095;-96
2022/03/04 10:17:32;;;;;;;26.27;16.65;;;2.00;1.00;;;;;;5043035;28;20237;-96
2022/03/04 10:20:00;;;;;;;21.48;15.23;;;3.20;8.50;;;;;;5025439;28;20037;-96
2022/03/04 10:22:45;;;;;;;19.13;14.93;;;4.40;56.30;;;;;;5045242;28;20041;-95
2022/03/04 10:25:26;;;;;;;19.35;13.75;;;5.40;1.00;;;;;;5040206;28;20079;-96
2022/03/04 10:27:53;;;;;;;17.15;13.25;;;6.40;1.00;;;;;;5040414;28;20116;-96
2022/03/04 10:30:34;;;;;;;20.85;12.90;;;7.20;1.00;;;;;;5023752;28;20398;-95
2022/03/04 10:33:14;;;;;;;17.38;12.65;;;7.80;99.90;;;;;;5039703;28;20063;-95
2022/03/04 10:35:40;;;;;;;17.20;12.57;;;8.40;99.90;;;;;;5040590;28;20060;-96
2022/03/04 10:38:06;;;;;;;16.05;11.50;;;8.70;99.90;;;;;;5040725;28;20131;-95
2022/03/04 10:40:42;;;;;;;15.75;11.82;;;8.90;99.90;;;;;;5027034;28;20044;-96
2022/03/04 10:43:12;;;;;;;17.65;12.10;;;8.90;1.00;;;;;;5039634;28;20071;-96
2022/03/04 10:45:41;;;;;;;18.20;12.15;;;9.50;36.20;;;;;;5043091;28;20037;-96
2022/03/04 10:48:12;;;;;;;14.75;10.93;;;9.70;99.90;;;;;;5042631;28;20107;-96
2022/03/04 10:50:43;;;;;;;14.23;10.52;;;9.90;99.90;;;;;;5037872;28;20041;-96
2022/03/04 10:53:14;;;;;;;13.55;11.20;;;10.20;87.30;;;;;;5039738;28;20049;-95
2022/03/04 10:55:45;;;;;;;12.73;10.45;;;10.30;79.80;;;;;;5039765;28;20043;-96
2022/03/04 10:58:18;;;;;;;13.30;9.95;;;10.60;9.70;;;;;;5041400;28;20508;-96
2022/03/04 11:00:47;;;;;;;13.65;10.05;;;10.70;99.90;;;;;;5039537;28;20041;-96
2022/03/04 11:03:24;;;;;;;12.80;10.45;;;11.00;99.90;;;;;;5040042;28;20106;-96
2022/03/04 11:05:52;;;;;;;12.07;9.73;;;11.20;99.90;;;;;;5038804;28;20057;-96
2022/03/04 11:08:20;;;;;;;14.30;9.75;;;11.40;99.90;;;;;;5043857;28;20087;-96
2022/03/04 11:10:47;;;;;;;14.30;10.45;;;11.50;29.80;;;;;;5042336;28;20048;-95
2022/03/04 11:13:13;;;;;;;11.98;9.88;;;11.50;96.30;;;;;;5039217;28;20084;-95
2022/03/04 11:15:40;;;;;;;18.88;9.93;;;11.60;67.90;;;;;;5039393;28;20060;-94
2022/03/04 11:18:10;;;;;;;12.80;9.93;;;11.80;1.00;;;;;;5039181;28;20051;-96
2022/03/04 11:20:38;;;;;;;12.75;9.35;;;12.00;1.00;;;;;;5038551;28;20056;-95
2022/03/04 11:23:05;;;;;;;12.05;9.80;;;12.10;1.00;;;;;;5038634;28;20049;-96
2022/03/04 11:25:37;;;;;;;12.13;9.23;;;12.20;1.00;;;;;;5040135;28;20045;-96
2022/03/04 11:28:19;;;;;;;13.30;9.68;;;12.20;1.00;;;;;;5040437;28;20059;-95
2022/03/04 11:30:50;;;;;;;12.68;8.73;;;12.20;1.00;;;;;;5037802;28;20070;-96
2022/03/04 11:33:22;;;;;;;11.55;9.20;;;12.40;1.00;;;;;;5038330;28;20084;-96
2022/03/04 11:36:03;;;;;;;12.75;9.55;;;12.90;1.00;;;;;;5039877;28;20048;-96
2022/03/04 11:38:47;;;;;;;12.43;8.57;;;12.80;1.00;;;;;;5039460;28;20055;-96
2022/03/04 11:41:26;;;;;;;11.27;8.70;;;12.90;1.00;;;;;;5039132;28;20057;-96
2022/03/04 11:43:54;;;;;;;12.23;8.43;;;12.80;1.00;;;;;;5037383;28;20515;-94
2022/03/04 11:46:43;;;;;;;11.15;8.77;;;12.70;1.00;;;;;;5038046;28;20040;-95
2022/03/04 11:49:29;;;;;;;11.95;8.95;;;12.60;1.00;;;;;;5036996;28;20547;-94
2022/03/04 11:52:27;;;;;;;12.98;8.88;;;12.40;1.00;;;;;;5036676;28;20103;-92
2022/03/04 11:54:59;;;;;;;10.40;8.20;;;12.60;1.00;;;;;;5005599;28;20088;-93
2022/03/04 11:57:25;;;;;;;11.70;8.77;;;12.90;1.00;;;;;;5037371;28;20480;-94
2022/03/04 11:59:59;;;;;;;12.10;9.60;;;13.00;1.00;;;;;;5038695;28;20040;-93
2022/03/04 12:02:38;;;;;;;11.48;9.18;;;12.90;1.00;;;;;;5038003;28;20055;-96
2022/03/04 12:05:19;;;;;;;11.50;9.45;;;13.10;1.00;;;;;;5037160;28;20049;-94
2022/03/04 12:07:52;;;;;;;10.63;8.60;;;13.10;1.00;;;;;;5037289;28;20044;-94
2022/03/04 12:10:20;;;;;;;;;;;13.20;1.00;;;;;;5038584;28;20471;-96
2022/03/04 12:13:07;;;;;;;10.55;8.68;;;13.10;1.00;;;;;;5037576;28;19984;-93
2022/03/04 12:15:35;;;;;;;12.80;9.15;;;12.80;1.00;;;;;;5036515;28;20080;-96
2022/03/04 12:18:06;;;;;;;11.93;9.45;;;12.70;1.00;;;;;;5037467;28;20045;-96
2022/03/04 12:20:41;;;;;;;11.95;9.07;;;12.60;1.00;;;;;;5037390;28;20044;-96
2022/03/04 12:23:28;;;;;;;11.48;8.70;;;12.50;1.00;;;;;;5036811;28;20057;-95
2022/03/04 12:25:57;;;;;;;11.80;9.27;;;12.30;1.00;;;;;;5037095;28;20041;-95
2022/03/04 12:28:24;;;;;;;14.80;9.30;;;12.40;1.00;;;;;;5038367;28;20334;-96
2022/03/04 12:31:04;;;;;;;10.55;9.07;;;12.30;1.00;;;;;;5036085;28;20098;-96
2022/03/04 12:33:35;;;;;;;13.07;9.65;;;12.40;1.00;;;;;;5036425;28;20053;-95